Time;durP1;ratioP1;P1;durP2;ratioP2;P2;SDS_P1;SDS_P2;PMS_P1;PMS_P2;Temp;Humidity;BMP_temperature;BMP_pressure;BME280_temperature;BME280_humidity;BME280_pressure;Samples;Min_cycle;Max_cycle;Signal;HPM_P1;HPM_P2
2021/08/05 00:02:14;;;;;;;9.30;3.30;;;;;;;13.73;100.00;95829.75;5037820;28;20029;-81
2021/08/05 00:04:40;;;;;;;8.38;3.00;;;;;;;13.66;100.00;95835.28;5038547;28;20042;-80
2021/08/05 00:07:06;;;;;;;8.55;2.92;;;;;;;13.57;100.00;95834.22;5037222;28;20040;-79
2021/08/05 00:09:32;;;;;;;10.82;3.13;;;;;;;13.58;100.00;95833.97;5038416;28;20099;-81
2021/08/05 00:11:58;;;;;;;9.48;3.20;;;;;;;13.62;100.00;95839.53;5038381;28;20065;-81
2021/08/05 00:14:25;;;;;;;7.25;2.85;;;;;;;13.63;100.00;95838.47;5040498;28;20045;-80
2021/08/05 00:16:51;;;;;;;8.55;2.63;;;;;;;13.61;100.00;95827.34;5038655;28;20107;-82
2021/08/05 00:19:16;;;;;;;7.78;3.35;;;;;;;13.61;100.00;95837.91;5040801;28;20037;-82
2021/08/05 00:21:42;;;;;;;13.32;5.18;;;;;;;13.55;100.00;95838.97;5038673;28;20073;-83
2021/08/05 00:24:08;;;;;;;8.05;3.03;;;;;;;13.63;100.00;95833.19;5041701;28;20048;-82
2021/08/05 00:26:37;;;;;;;10.00;3.45;;;;;;;13.67;100.00;95831.59;5043447;28;20045;-81
2021/08/05 00:29:02;;;;;;;11.00;3.97;;;;;;;13.69;100.00;95829.47;5043273;28;20073;-83
2021/08/05 00:31:29;;;;;;;11.45;4.05;;;;;;;13.72;100.00;95822.84;5050336;28;20033;-82
2021/08/05 00:33:55;;;;;;;11.32;4.65;;;;;;;13.65;100.00;95821.28;5044907;28;20045;-83
2021/08/05 00:36:21;;;;;;;13.80;4.78;;;;;;;13.58;100.00;95812.03;5048031;28;20048;-83
2021/08/05 00:38:46;;;;;;;12.48;5.30;;;;;;;13.52;100.00;95824.44;5048721;28;20140;-82
2021/08/05 00:41:12;;;;;;;12.38;4.60;;;;;;;13.56;100.00;95819.41;5044994;28;20042;-83
2021/08/05 00:43:38;;;;;;;10.10;4.90;;;;;;;13.55;100.00;95813.34;5045111;28;20049;-83
2021/08/05 00:46:04;;;;;;;11.57;4.95;;;;;;;13.47;100.00;95815.72;5043682;28;20413;-83
2021/08/05 00:48:31;;;;;;;10.77;5.10;;;;;;;13.55;100.00;95812.53;5046080;28;20048;-82
2021/08/05 00:50:58;;;;;;;11.63;4.75;;;;;;;13.43;100.00;95814.66;5052756;28;20045;-81
2021/08/05 00:53:25;;;;;;;11.82;4.97;;;;;;;13.46;100.00;95812.28;5053339;28;20571;-84
2021/08/05 00:55:54;;;;;;;11.23;4.83;;;;;;;13.51;100.00;95814.16;5046944;28;20049;-82
2021/08/05 00:58:19;;;;;;;11.45;4.55;;;;;;;13.50;100.00;95810.69;5049806;28;20072;-81
2021/08/05 01:00:50;;;;;;;12.20;5.05;;;;;;;13.47;100.00;95805.16;5046431;28;20046;-83
2021/08/05 01:03:23;;;;;;;12.07;4.80;;;;;;;13.41;100.00;95808.84;5044342;28;20068;-82
2021/08/05 01:06:02;;;;;;;11.77;4.68;;;;;;;13.44;100.00;95800.38;5043369;28;20045;-82
2021/08/05 01:08:29;;;;;;;11.95;4.15;;;;;;;13.49;100.00;95803.03;5043357;28;20037;-82
2021/08/05 01:11:01;;;;;;;13.30;4.47;;;;;;;13.45;100.00;95807.25;5042615;28;20045;-82
2021/08/05 01:13:35;;;;;;;10.75;4.28;;;;;;;13.51;100.00;95811.50;5041935;28;20040;-81
2021/08/05 01:16:08;;;;;;;10.70;4.13;;;;;;;13.50;100.00;95809.91;5041827;28;20042;-81
2021/08/05 01:18:37;;;;;;;8.95;4.00;;;;;;;13.39;100.00;95799.31;5040334;28;20122;-80
2021/08/05 01:21:12;;;;;;;11.95;4.65;;;;;;;13.40;100.00;95805.41;5052200;28;20123;-80
2021/08/05 01:23:42;;;;;;;12.48;4.03;;;;;;;13.42;100.00;95802.50;5044946;28;20045;-81
2021/08/05 01:26:12;;;;;;;9.75;3.90;;;;;;;13.43;100.00;95804.09;5042952;28;20038;-81
2021/08/05 01:28:43;;;;;;;10.20;4.07;;;;;;;13.38;100.00;95803.03;5049811;28;20041;-79
2021/08/05 01:31:09;;;;;;;10.15;3.67;;;;;;;13.45;100.00;95799.31;5048292;28;20045;-78
2021/08/05 01:33:36;;;;;;;7.95;3.00;;;;;;;13.49;100.00;95806.47;5041829;28;20071;-80
2021/08/05 01:36:03;;;;;;;8.50;3.50;;;;;;;13.38;100.00;95805.66;5038436;28;20045;-80
2021/08/05 01:38:32;;;;;;;7.55;3.10;;;;;;;13.44;100.00;95798.53;5045621;28;20041;-79
2021/08/05 01:40:59;;;;;;;9.63;3.42;;;;;;;13.53;100.00;95804.09;5051398;28;20417;-79
2021/08/05 01:43:28;;;;;;;11.95;3.83;;;;;;;13.52;100.00;95803.31;5052697;28;20052;-79
2021/08/05 01:45:57;;;;;;;11.80;3.88;;;;;;;13.39;100.00;95796.69;5040373;28;20505;-82
2021/08/05 01:48:26;;;;;;;10.32;3.95;;;;;;;13.42;100.00;95797.22;5039169;28;20037;-78
2021/08/05 01:50:52;;;;;;;12.32;4.93;;;;;;;13.44;100.00;95790.59;5043765;28;20033;-79
2021/08/05 01:55:46;;;;;;;12.97;4.87;;;;;;;13.35;100.00;95793.00;5109630;28;20117;-82
2021/08/05 01:58:13;;;;;;;12.15;5.18;;;;;;;13.38;100.00;95789.03;5108841;28;20085;-82
2021/08/05 02:00:39;;;;;;;12.68;5.15;;;;;;;13.38;100.00;95779.25;5108040;28;20093;-85
2021/08/05 02:03:09;;;;;;;12.20;4.97;;;;;;;13.53;100.00;95783.75;5079651;28;20070;-91
2021/08/05 02:05:41;;;;;;;13.93;5.38;;;;;;;13.36;100.00;95775.28;5106357;28;20047;-92
2021/08/05 02:08:11;;;;;;;13.85;5.53;;;;;;;13.31;100.00;95775.28;5097827;28;20055;-91
2021/08/05 02:10:40;;;;;;;15.50;6.30;;;;;;;13.38;100.00;95766.03;5117265;28;20100;-88
2021/08/05 02:13:12;;;;;;;15.32;5.95;;;;;;;13.33;100.00;95773.97;5118654;28;20056;-86
2021/08/05 02:15:44;;;;;;;15.75;6.07;;;;;;;13.36;100.00;95777.94;5114696;28;20020;-90
2021/08/05 02:18:13;;;;;;;16.33;6.88;;;;;;;13.34;100.00;95778.19;5118762;28;20032;-89
2021/08/05 02:20:42;;;;;;;20.30;7.40;;;;;;;13.37;100.00;95769.75;5098339;28;20054;-83
2021/08/05 02:23:09;;;;;;;18.25;7.18;;;;;;;13.37;100.00;95768.94;5115634;28;20044;-87
2021/08/05 02:25:35;;;;;;;18.48;7.57;;;;;;;13.30;100.00;95769.22;5114061;28;20039;-86
2021/08/05 02:28:00;;;;;;;17.13;7.22;;;;;;;13.31;100.00;95770.78;5106433;28;20526;-86
2021/08/05 02:30:27;;;;;;;15.35;6.47;;;;;;;13.33;100.00;95779.25;5086278;28;20044;-86
2021/08/05 02:32:52;;;;;;;17.30;7.65;;;;;;;13.30;100.00;95779.78;5104680;28;20105;-82
2021/08/05 02:35:20;;;;;;;19.13;7.95;;;;;;;13.43;100.00;95777.66;5102759;28;20465;-83
2021/08/05 02:37:46;;;;;;;;;;;;;;;13.39;100.00;95777.41;5103241;28;20051;-83
2021/08/05 02:40:12;;;;;;;20.70;7.72;;;;;;;13.37;100.00;95780.31;5095897;28;19996;-84
2021/08/05 02:42:39;;;;;;;21.52;8.25;;;;;;;13.36;100.00;95768.16;5107342;28;20044;-83
2021/08/05 02:45:06;;;;;;;20.70;9.52;;;;;;;13.27;100.00;95775.00;5102056;28;20040;-83
2021/08/05 02:47:32;;;;;;;24.48;10.57;;;;;;;13.19;100.00;95762.31;5103295;28;20074;-83
2021/08/05 02:50:01;;;;;;;22.77;9.50;;;;;;;13.31;100.00;95775.28;5084040;28;20036;-83
2021/08/05 02:52:28;;;;;;;30.17;10.05;;;;;;;13.25;100.00;95774.50;5101471;28;20112;-82
2021/08/05 02:54:54;;;;;;;28.55;10.45;;;;;;;13.16;100.00;95767.31;5104823;28;20036;-83
2021/08/05 02:57:20;;;;;;;28.10;11.48;;;;;;;13.21;100.00;95754.94;5104807;28;20143;-84
2021/08/05 02:59:48;;;;;;;28.40;11.07;;;;;;;13.28;100.00;95758.09;5086308;28;20044;-84
2021/08/05 03:02:14;;;;;;;29.10;10.85;;;;;;;13.19;100.00;95762.31;5103934;28;20131;-81
2021/08/05 03:04:40;;;;;;;25.00;10.73;;;;;;;13.24;100.00;95759.72;5103044;28;20077;-85
2021/08/05 03:07:08;;;;;;;29.45;11.73;;;;;;;13.30;100.00;95757.84;5104098;28;20075;-85
2021/08/05 03:09:35;;;;;;;30.55;11.32;;;;;;;13.22;100.00;95766.28;5098542;28;20044;-84
2021/08/05 03:12:03;;;;;;;30.17;10.48;;;;;;;13.34;100.00;95764.19;5102926;28;20046;-84
2021/08/05 03:14:29;;;;;;;25.50;11.00;;;;;;;13.43;100.00;95764.47;5114355;28;20048;-84
2021/08/05 03:16:54;;;;;;;24.48;10.77;;;;;;;13.32;100.00;95761.81;5113836;28;20054;-84
2021/08/05 03:19:20;;;;;;;24.23;10.35;;;;;;;13.41;100.00;95758.66;5088087;28;20128;-81
2021/08/05 03:21:48;;;;;;;26.00;10.07;;;;;;;13.29;100.00;95772.91;5110295;28;20117;-83
2021/08/05 03:24:14;;;;;;;25.05;10.57;;;;;;;13.24;100.00;95770.28;5099810;28;20048;-83
2021/08/05 03:26:43;;;;;;;27.00;10.90;;;;;;;13.36;100.00;95768.16;5100319;28;20050;-84
2021/08/05 03:29:11;;;;;;;26.00;10.52;;;;;;;13.25;100.00;95766.56;5101170;28;20040;-84
2021/08/05 03:31:37;;;;;;;24.45;9.75;;;;;;;13.26;100.00;95770.78;5081311;28;20040;-86
2021/08/05 03:34:03;;;;;;;27.38;10.18;;;;;;;13.29;100.00;95765.00;5097597;28;20054;-84
2021/08/05 03:36:28;;;;;;;24.35;9.80;;;;;;;13.30;100.00;95771.06;5098871;28;20044;-85
2021/08/05 03:38:54;;;;;;;25.05;10.35;;;;;;;13.36;100.00;95767.38;5097633;28;20051;-85
2021/08/05 03:41:20;;;;;;;25.50;9.73;;;;;;;13.41;100.00;95764.72;5090196;28;20040;-83
2021/08/05 03:43:47;;;;;;;25.58;10.50;;;;;;;13.36;100.00;95767.38;5101547;28;20040;-84
2021/08/05 03:46:14;;;;;;;26.88;9.85;;;;;;;13.38;100.00;95773.97;5099117;28;20173;-84
2021/08/05 03:48:42;;;;;;;22.55;10.10;;;;;;;13.37;100.00;95769.75;5103200;28;20054;-84
2021/08/05 03:51:08;;;;;;;30.30;10.88;;;;;;;13.36;100.00;95778.72;5113640;28;20032;-83
2021/08/05 03:53:34;;;;;;;23.52;10.80;;;;;;;13.37;100.00;95776.88;5103049;28;20075;-85
2021/08/05 03:56:02;;;;;;;24.40;10.23;;;;;;;13.42;100.00;95776.09;5100690;28;20111;-85
2021/08/05 03:58:28;;;;;;;25.15;10.13;;;;;;;13.45;100.00;95786.13;5084561;28;20036;-87
2021/08/05 04:00:55;;;;;;;32.58;10.18;;;;;;;13.51;100.00;95770.03;5100180;28;20151;-86
2021/08/05 04:03:21;;;;;;;23.52;10.38;;;;;;;13.38;100.00;95776.59;5084899;28;20048;-85
2021/08/05 04:05:46;;;;;;;24.88;10.05;;;;;;;13.51;100.00;95775.31;5104296;28;20388;-85
2021/08/05 04:08:12;;;;;;;23.52;10.18;;;;;;;13.46;100.00;95771.88;5084010;28;20134;-85
2021/08/05 04:10:38;;;;;;;21.95;10.55;;;;;;;13.48;100.00;95781.09;5093207;28;20040;-85
2021/08/05 04:13:06;;;;;;;28.50;10.73;;;;;;;13.45;100.00;95780.81;5102457;28;20138;-86
2021/08/05 04:15:31;;;;;;;25.05;10.63;;;;;;;13.43;100.00;95775.03;5083707;28;20044;-86
2021/08/05 04:17:58;;;;;;;24.40;10.50;;;;;;;13.43;100.00;95772.38;5103981;28;20063;-86
2021/08/05 04:20:24;;;;;;;25.63;10.35;;;;;;;13.37;100.00;95775.03;5102248;28;20040;-85
2021/08/05 04:22:52;;;;;;;24.08;9.60;;;;;;;13.52;100.00;95776.88;5104803;28;20583;-82
2021/08/05 04:25:18;;;;;;;20.90;9.82;;;;;;;13.57;100.00;95784.03;5105010;28;20062;-83
2021/08/05 04:27:44;;;;;;;22.80;9.50;;;;;;;13.50;100.00;95788.75;5108480;28;20068;-84
2021/08/05 04:30:12;;;;;;;20.02;8.13;;;;;;;13.54;100.00;95782.69;5106271;28;20040;-83
2021/08/05 04:32:38;;;;;;;19.45;8.00;;;;;;;13.54;100.00;95781.91;5103495;28;20051;-83
2021/08/05 04:35:07;;;;;;;23.35;8.57;;;;;;;13.59;100.00;95781.91;5103461;28;20040;-82
2021/08/05 04:37:33;;;;;;;20.77;8.55;;;;;;;13.58;100.00;95785.59;5104040;28;20050;-83
2021/08/05 04:39:58;;;;;;;20.38;8.57;;;;;;;13.61;100.00;95777.94;5103791;28;20115;-83
2021/08/05 04:42:24;;;;;;;16.25;8.38;;;;;;;13.59;100.00;95776.59;5110562;28;20032;-84
2021/08/05 04:44:50;;;;;;;18.25;8.68;;;;;;;13.76;100.00;95779.78;5109510;28;20072;-85
2021/08/05 04:47:15;;;;;;;18.75;8.98;;;;;;;13.66;100.00;95782.41;5093839;28;20099;-84
2021/08/05 04:49:41;;;;;;;19.92;9.13;;;;;;;13.70;100.00;95777.41;5091232;28;20040;-84
2021/08/05 04:52:08;;;;;;;19.25;8.98;;;;;;;13.66;100.00;95777.13;5106953;28;20069;-86
2021/08/05 04:54:34;;;;;;;17.40;8.27;;;;;;;13.78;100.00;95780.31;5103799;28;20111;-84
2021/08/05 04:57:00;;;;;;;19.13;9.15;;;;;;;13.75;100.00;95778.19;5103018;28;20079;-84
2021/08/05 04:59:25;;;;;;;16.92;8.88;;;;;;;13.78;100.00;95782.16;5087925;28;20115;-88
2021/08/05 05:01:51;;;;;;;21.67;9.20;;;;;;;13.84;100.00;95779.25;5092928;28;20044;-89
2021/08/05 05:04:17;;;;;;;17.27;7.97;;;;;;;13.86;100.00;95778.97;5083995;28;20505;-84
2021/08/05 05:06:42;;;;;;;16.85;8.60;;;;;;;13.77;100.00;95781.34;5106877;28;20055;-84
2021/08/05 05:09:09;;;;;;;18.98;8.50;;;;;;;13.89;100.00;95773.94;5102208;28;20063;-85
2021/08/05 05:11:35;;;;;;;20.00;8.55;;;;;;;13.96;100.00;95770.25;5101135;28;20068;-86
2021/08/05 05:14:03;;;;;;;18.38;8.20;;;;;;;14.04;100.00;95761.75;5083645;28;20047;-86
2021/08/05 05:16:30;;;;;;;18.33;7.68;;;;;;;14.16;99.76;95764.91;5102083;28;20056;-85
2021/08/05 05:18:56;;;;;;;17.40;8.30;;;;;;;14.23;99.45;95760.13;5101594;28;20054;-83
2021/08/05 05:21:21;;;;;;;17.00;8.35;;;;;;;14.30;99.21;95755.31;5086611;28;20127;-84
2021/08/05 05:23:50;;;;;;;18.13;7.80;;;;;;;14.31;98.84;95762.19;5065831;28;20044;-81
2021/08/05 05:26:20;;;;;;;20.33;8.65;;;;;;;14.42;98.73;95760.31;5083443;28;20040;-85
2021/08/05 05:28:45;;;;;;;20.67;7.80;;;;;;;14.39;98.03;95760.84;5088195;28;20084;-84
2021/08/05 05:31:11;;;;;;;17.58;8.70;;;;;;;14.32;98.72;95760.38;5078379;28;20035;-85
2021/08/05 05:33:37;;;;;;;18.38;8.88;;;;;;;14.40;98.64;95760.59;5115366;28;20073;-86
2021/08/05 05:36:03;;;;;;;17.05;8.00;;;;;;;14.39;98.72;95752.91;5093370;28;20139;-87
2021/08/05 05:38:29;;;;;;;15.43;7.53;;;;;;;14.41;97.96;95751.56;5106587;28;20044;-87
2021/08/05 05:40:54;;;;;;;20.80;10.20;;;;;;;14.29;98.59;95745.81;5108169;28;20040;-86
2021/08/05 05:43:21;;;;;;;19.55;8.93;;;;;;;14.44;97.89;95760.84;5092084;28;20120;-84
2021/08/05 05:45:47;;;;;;;17.80;8.40;;;;;;;14.55;96.51;95754.47;5114842;28;20227;-84
2021/08/05 05:48:19;;;;;;;19.15;9.32;;;;;;;14.64;96.07;95757.34;5096203;28;20060;-89
2021/08/05 05:53:23;;;;;;;17.85;8.63;;;;;;;14.62;96.65;95767.41;5146691;22;20096;-85
2021/08/05 05:55:50;;;;;;;18.20;9.00;;;;;;;14.60;97.13;95762.38;5056371;28;20037;-85
2021/08/05 05:58:16;;;;;;;21.92;9.75;;;;;;;14.73;96.71;95763.66;5051980;28;20056;-85
2021/08/05 06:00:46;;;;;;;27.73;10.63;;;;;;;14.59;97.33;95760.81;5024340;28;20445;-87
2021/08/05 06:03:14;;;;;;;17.38;9.70;;;;;;;14.60;96.78;95764.25;5043153;28;20069;-86
2021/08/05 06:05:41;;;;;;;18.05;9.55;;;;;;;14.69;96.05;95762.63;5024941;28;20524;-87
2021/08/05 06:08:07;;;;;;;18.83;8.88;;;;;;;14.74;96.21;95775.81;5042679;28;20037;-87
2021/08/05 06:10:33;;;;;;;18.83;9.23;;;;;;;14.95;95.36;95766.69;5024363;28;20049;-86
2021/08/05 06:12:59;;;;;;;18.48;9.25;;;;;;;14.84;96.16;95767.03;5025032;28;20060;-85
2021/08/05 06:15:24;;;;;;;18.42;9.43;;;;;;;14.95;94.87;95766.69;5055314;28;20044;-86
2021/08/05 06:17:51;;;;;;;19.52;8.93;;;;;;;15.15;93.73;95770.31;5030454;28;20046;-84
2021/08/05 06:20:19;;;;;;;17.23;8.73;;;;;;;15.41;93.24;95769.06;5022559;28;20443;-86
2021/08/05 06:22:47;;;;;;;17.98;8.23;;;;;;;15.34;92.45;95767.81;5008722;28;20065;-86
2021/08/05 06:25:14;;;;;;;18.55;8.18;;;;;;;15.31;94.02;95763.03;5029148;28;20041;-85
2021/08/05 06:27:42;;;;;;;17.63;8.00;;;;;;;15.44;93.61;95768.53;5045708;28;20041;-85
2021/08/05 06:30:11;;;;;;;21.65;7.55;;;;;;;15.28;93.31;95763.59;5028250;28;20046;-84
2021/08/05 06:32:37;;;;;;;14.43;7.93;;;;;;;15.28;92.92;95767.00;5046050;28;20046;-83
2021/08/05 06:35:04;;;;;;;16.45;7.25;;;;;;;15.46;92.69;95771.66;5044884;28;20361;-84
2021/08/05 06:37:31;;;;;;;15.07;7.47;;;;;;;15.76;92.00;95764.53;5047685;28;20046;-85
2021/08/05 06:40:04;;;;;;;17.33;8.15;;;;;;;16.08;91.04;95771.94;5053226;28;20045;-88
2021/08/05 06:42:33;;;;;;;16.13;8.18;;;;;;;16.02;89.23;95773.84;5024850;28;20505;-88
2021/08/05 06:44:59;;;;;;;18.27;7.63;;;;;;;15.91;90.14;95767.06;5043701;28;20056;-87
2021/08/05 06:47:24;;;;;;;15.73;7.20;;;;;;;15.92;90.19;95767.84;5043995;28;20045;-87
2021/08/05 06:49:51;;;;;;;15.32;7.30;;;;;;;16.21;89.43;95765.19;5047067;28;20052;-89
2021/08/05 06:52:18;;;;;;;44.60;18.08;;;;;;;16.12;89.27;95761.56;5035445;28;20033;-91
2021/08/05 06:54:46;;;;;;;16.42;8.27;;;;;;;16.31;87.65;95762.44;5033841;28;20029;-87
2021/08/05 06:57:14;;;;;;;15.30;7.30;;;;;;;16.60;86.47;95762.34;5033836;28;20045;-86
2021/08/05 06:59:42;;;;;;;14.02;7.03;;;;;;;16.66;86.35;95765.72;5051446;28;20048;-85
2021/08/05 07:02:07;;;;;;;;;;;;;;;16.85;85.15;95769.25;5051599;28;20025;-89
2021/08/05 07:04:33;;;;;;;16.08;7.38;;;;;;;16.73;84.84;95758.22;5046126;28;20239;-87
2021/08/05 07:06:59;;;;;;;13.23;7.28;;;;;;;17.01;85.00;95767.97;5043621;28;20528;-90
2021/08/05 07:09:27;;;;;;;14.68;7.20;;;;;;;17.07;84.71;95744.75;5036370;28;20026;-94
2021/08/05 07:11:55;;;;;;;15.98;7.45;;;;;;;17.21;83.73;95750.13;5040187;28;20038;-95
2021/08/05 07:14:20;;;;;;;17.02;7.97;;;;;;;17.05;84.74;95753.00;5040274;28;20108;-95
2021/08/05 07:16:46;;;;;;;25.65;8.13;;;;;;;17.10;83.28;95759.31;5040400;28;20056;-92
2021/08/05 07:19:12;;;;;;;15.07;7.95;;;;;;;17.10;83.31;95768.09;5040185;28;20029;-93
2021/08/05 07:21:40;;;;;;;14.18;7.47;;;;;;;17.26;83.17;95769.44;5037689;28;20084;-90
2021/08/05 07:24:06;;;;;;;13.88;8.00;;;;;;;17.28;82.86;95746.03;5025580;28;20045;-91
2021/08/05 07:26:34;;;;;;;16.67;7.75;;;;;;;17.36;81.77;95768.50;5037957;28;20065;-91
2021/08/05 07:28:59;;;;;;;;;;;;;;;17.59;81.08;95766.81;5039915;28;20022;-93
2021/08/05 07:31:25;;;;;;;13.57;7.35;;;;;;;17.82;80.72;95759.84;5071532;28;19936;-91
2021/08/05 07:33:54;;;;;;;14.27;7.15;;;;;;;18.15;80.09;95770.44;5049559;28;20532;-91
2021/08/05 07:36:21;;;;;;;13.77;7.63;;;;;;;18.19;78.63;95755.44;5040022;28;20033;-93
2021/08/05 07:38:46;;;;;;;14.60;7.38;;;;;;;17.96;79.27;95755.31;5039935;28;20185;-94
2021/08/05 07:41:15;;;;;;;14.00;7.13;;;;;;;18.26;79.53;95758.50;5057174;28;20021;-93
2021/08/05 07:43:44;;;;;;;14.18;8.35;;;;;;;18.43;77.46;95761.38;5039666;28;20044;-91
2021/08/05 07:46:10;;;;;;;13.18;7.32;;;;;;;18.91;74.69;95747.63;5039498;28;20028;-94
2021/08/05 07:48:35;;;;;;;14.98;6.65;;;;;;;19.61;71.85;95749.00;5039906;28;20053;-94
2021/08/05 07:51:01;;;;;;;12.30;6.53;;;;;;;19.84;71.56;95741.75;5036659;28;20104;-89
2021/08/05 07:53:27;;;;;;;13.52;7.00;;;;;;;19.92;68.93;95754.38;5028225;28;20050;-89
2021/08/05 07:55:56;;;;;;;12.02;6.63;;;;;;;19.70;70.92;95741.06;5067910;23;20050;-80
2021/08/05 07:58:22;;;;;;;12.38;6.30;;;;;;;20.34;67.55;95744.16;5051763;28;20029;-83
2021/08/05 08:00:49;;;;;;;10.88;5.57;;;;;;;20.30;67.63;95746.69;5052212;28;20103;-81
2021/08/05 08:03:15;;;;;;;11.93;6.03;;;;;;;19.92;67.44;95744.47;5053743;28;20025;-81
2021/08/05 08:05:41;;;;;;;12.43;6.15;;;;;;;19.52;69.75;95740.91;5033404;28;20041;-81
2021/08/05 08:08:07;;;;;;;12.63;6.15;;;;;;;19.14;70.98;95749.25;5050637;28;20093;-79
2021/08/05 08:10:33;;;;;;;14.93;5.88;;;;;;;19.17;70.85;95745.19;5053030;28;20057;-81
2021/08/05 08:12:58;;;;;;;10.20;5.55;;;;;;;18.85;71.06;95744.28;5027911;28;20042;-81
2021/08/05 08:15:25;;;;;;;9.80;5.28;;;;;;;18.67;71.38;95741.72;5048362;28;20082;-80
2021/08/05 08:17:53;;;;;;;14.02;6.03;;;;;;;18.69;70.83;95736.91;5050772;28;20034;-81
2021/08/05 08:20:19;;;;;;;10.75;5.50;;;;;;;18.93;71.23;95745.44;5034275;28;20037;-80
2021/08/05 08:22:45;;;;;;;12.25;5.78;;;;;;;18.96;70.39;95738.75;5051275;28;20095;-81
2021/08/05 08:25:11;;;;;;;12.20;6.25;;;;;;;18.87;71.42;95736.00;5032224;28;20502;-81
2021/08/05 08:27:40;;;;;;;11.23;5.88;;;;;;;18.80;71.15;95743.63;5049562;28;20049;-82
2021/08/05 08:30:06;;;;;;;12.25;6.40;;;;;;;18.34;71.79;95747.94;5031744;28;20462;-82
2021/08/05 08:32:32;;;;;;;13.07;7.15;;;;;;;18.63;72.19;95741.53;5048906;28;20413;-83
2021/08/05 08:35:01;;;;;;;12.95;6.97;;;;;;;19.70;69.39;95747.19;5050350;28;20046;-84
2021/08/05 08:37:27;;;;;;;12.73;7.47;;;;;;;20.85;64.61;95750.78;5049533;28;20044;-82
2021/08/05 08:39:52;;;;;;;13.80;7.63;;;;;;;21.61;62.18;95742.31;5050571;28;20101;-83
2021/08/05 08:42:18;;;;;;;12.93;7.93;;;;;;;21.90;60.75;95746.97;5033605;28;20045;-82
2021/08/05 08:44:44;;;;;;;13.90;8.23;;;;;;;22.63;59.38;95745.00;5053561;28;20049;-81
2021/08/05 08:47:11;;;;;;;11.25;6.72;;;;;;;22.41;59.64;95742.59;5052861;28;20041;-83
2021/08/05 08:49:38;;;;;;;13.02;8.30;;;;;;;22.58;58.33;95750.53;5054620;28;20136;-83
2021/08/05 08:52:08;;;;;;;13.10;7.97;;;;;;;22.44;57.48;95745.44;5035325;28;20106;-81
2021/08/05 08:54:40;;;;;;;12.02;5.97;;;;;;;21.48;58.99;95744.88;5036705;28;20041;-82
2021/08/05 08:57:07;;;;;;;10.55;4.75;;;;;;;20.93;60.66;95744.66;5057438;28;20022;-82
2021/08/05 08:59:34;;;;;;;9.75;4.45;;;;;;;20.39;62.36;95741.34;5035759;28;20044;-81
2021/08/05 09:02:02;;;;;;;8.03;3.77;;;;;;;20.17;62.52;95745.66;5056250;28;20120;-80
2021/08/05 09:04:28;;;;;;;7.47;3.58;;;;;;;19.87;64.38;95735.81;5056671;28;20029;-80
2021/08/05 09:06:56;;;;;;;7.43;3.10;;;;;;;19.75;64.82;95743.56;5049370;28;20099;-82
2021/08/05 09:09:23;;;;;;;8.38;3.88;;;;;;;19.82;64.75;95735.94;5046905;28;20049;-82
2021/08/05 09:11:48;;;;;;;8.07;3.65;;;;;;;20.23;65.58;95740.19;5030631;28;20516;-81
2021/08/05 09:14:39;;;;;;;7.80;3.60;;;;;;;20.45;63.25;95740.16;5036270;28;20140;-80
2021/08/05 09:17:15;;;;;;;7.63;3.35;;;;;;;21.00;61.52;95731.63;5038676;28;20064;-82
2021/08/05 09:19:44;;;;;;;7.82;3.50;;;;;;;21.84;58.93;95734.88;5052366;28;20049;-83
2021/08/05 09:22:13;;;;;;;7.82;3.17;;;;;;;22.00;57.75;95727.91;5034337;28;20064;-82
2021/08/05 09:24:40;;;;;;;9.75;2.97;;;;;;;21.65;59.72;95728.00;5051824;28;20033;-82
2021/08/05 09:27:06;;;;;;;7.80;2.90;;;;;;;21.16;59.81;95738.09;5033848;28;20045;-84
2021/08/05 09:29:43;;;;;;;6.65;2.40;;;;;;;21.34;60.68;95733.53;5033239;28;20114;-82
2021/08/05 09:32:08;;;;;;;7.60;2.60;;;;;;;21.16;61.14;95727.38;5051866;28;20393;-82
2021/08/05 09:34:36;;;;;;;11.38;2.72;;;;;;;20.95;61.16;95727.22;5050700;28;20060;-82
2021/08/05 09:37:07;;;;;;;7.53;2.22;;;;;;;20.76;61.46;95728.59;5051451;28;20049;-84
2021/08/05 09:39:34;;;;;;;6.18;2.33;;;;;;;20.93;61.49;95717.91;5054200;28;20096;-80
2021/08/05 09:42:02;;;;;;;8.68;2.58;;;;;;;21.04;60.87;95719.22;5052433;28;20043;-79
2021/08/05 09:44:41;;;;;;;8.65;3.42;;;;;;;21.13;62.20;95711.16;5047396;28;20076;-85
2021/08/05 09:47:12;;;;;;;6.65;2.38;;;;;;;21.37;61.71;95716.09;5034036;28;20120;-79
2021/08/05 09:49:39;;;;;;;7.40;2.70;;;;;;;21.68;59.49;95716.63;5036575;28;20068;-80
2021/08/05 09:52:06;;;;;;;6.90;2.70;;;;;;;21.75;57.87;95706.25;5047236;28;20049;-87
2021/08/05 09:54:43;;;;;;;7.32;2.30;;;;;;;21.86;57.49;95717.41;5046783;28;20045;-85
2021/08/05 09:57:23;;;;;;;7.43;2.28;;;;;;;22.32;56.99;95707.00;5055343;28;20047;-83
2021/08/05 09:59:54;;;;;;;6.88;1.98;;;;;;;22.60;55.35;95702.78;5050079;28;20049;-82
2021/08/05 10:02:20;;;;;;;5.50;2.00;;;;;;;22.78;54.31;95703.44;5045405;28;20076;-82
2021/08/05 10:04:48;;;;;;;8.47;2.00;;;;;;;22.83;52.80;95702.47;5044480;28;20064;-82
2021/08/05 10:07:16;;;;;;;6.28;1.95;;;;;;;22.33;53.35;95705.91;5048359;28;20075;-81
2021/08/05 10:09:44;;;;;;;7.72;2.30;;;;;;;22.30;52.68;95703.88;5056711;28;20087;-81
2021/08/05 10:12:12;;;;;;;6.22;2.28;;;;;;;21.85;53.95;95705.13;5054791;28;20040;-81
2021/08/05 10:14:40;;;;;;;5.80;1.90;;;;;;;22.37;53.20;95696.09;5052555;28;20056;-81
2021/08/05 10:17:06;;;;;;;;;;;;;;;22.64;53.17;95703.66;5054377;28;20033;-80
2021/08/05 10:19:37;;;;;;;4.68;1.70;;;;;;;22.52;53.12;95698.22;5053945;28;19921;-82
2021/08/05 10:22:04;;;;;;;7.22;2.00;;;;;;;22.82;52.91;95700.88;5050822;28;20154;-82
2021/08/05 10:24:30;;;;;;;6.93;2.38;;;;;;;22.80;53.31;95695.84;5033177;28;20065;-81
2021/08/05 10:26:56;;;;;;;5.43;1.60;;;;;;;23.10;52.15;95695.81;5050603;28;20107;-83
2021/08/05 10:29:23;;;;;;;5.10;1.60;;;;;;;22.86;52.67;95688.41;5052197;28;20045;-81
2021/08/05 10:31:51;;;;;;;4.75;1.58;;;;;;;22.76;53.47;95685.00;5034075;28;20056;-79
2021/08/05 10:34:17;;;;;;;5.95;1.80;;;;;;;22.50;52.05;95687.06;5047148;28;20059;-81
2021/08/05 10:36:43;;;;;;;5.70;1.60;;;;;;;22.12;52.51;95676.38;5047302;28;20072;-83
2021/08/05 10:39:10;;;;;;;6.38;1.80;;;;;;;22.54;52.29;95677.25;5049092;28;20062;-80
2021/08/05 10:41:36;;;;;;;6.28;1.60;;;;;;;22.66;51.78;95679.25;5049668;28;20107;-82
2021/08/05 10:44:02;;;;;;;6.63;1.90;;;;;;;22.70;52.17;95670.19;5050048;28;20064;-83
2021/08/05 10:46:33;;;;;;;5.78;1.75;;;;;;;23.37;51.35;95664.97;5050734;28;20041;-83
2021/08/05 10:49:02;;;;;;;4.60;1.70;;;;;;;23.33;50.87;95661.38;5050936;28;20057;-83
2021/08/05 10:51:28;;;;;;;4.80;1.70;;;;;;;23.18;50.90;95662.75;5053769;28;20038;-81
2021/08/05 10:53:55;;;;;;;6.00;1.50;;;;;;;23.09;51.02;95657.50;5053376;28;20048;-83
2021/08/05 10:56:23;;;;;;;4.65;1.63;;;;;;;23.29;51.43;95659.34;5051995;28;20049;-82
2021/08/05 10:59:11;;;;;;;6.05;1.73;;;;;;;23.12;52.10;95659.50;5033863;28;20064;-82
2021/08/05 11:01:55;;;;;;;4.95;1.65;;;;;;;23.34;51.32;95655.66;5055546;28;20105;-79
2021/08/05 11:04:45;;;;;;;5.35;1.63;;;;;;;23.08;50.80;95647.84;5053452;28;20034;-83
2021/08/05 11:07:25;;;;;;;5.13;1.60;;;;;;;23.34;48.44;95649.50;5036390;28;20120;-80
2021/08/05 11:09:52;;;;;;;5.85;1.50;;;;;;;23.13;47.71;95644.97;5055905;28;20072;-78
2021/08/05 11:12:39;;;;;;;5.22;1.60;;;;;;;23.09;49.83;95641.41;5056258;28;20029;-78
2021/08/05 11:15:37;;;;;;;5.22;1.40;;;;;;;23.08;49.65;95644.38;5050130;28;20112;-82
2021/08/05 11:18:23;;;;;;;4.32;1.48;;;;;;;23.28;49.68;95640.88;5049922;28;20042;-83
2021/08/05 11:21:34;;;;;;;5.43;1.80;;;;;;;23.52;50.31;95645.56;5051138;28;20080;-82
2021/08/05 11:24:01;;;;;;;7.70;1.92;;;;;;;23.79;50.77;95639.59;5050338;28;20041;-82
2021/08/05 11:26:27;;;;;;;6.93;2.50;;;;;;;23.71;48.97;95629.72;5050867;28;20049;-80
2021/08/05 11:28:56;;;;;;;4.80;1.65;;;;;;;23.92;48.18;95631.53;5049392;28;20456;-81
2021/08/05 11:31:29;;;;;;;6.88;2.00;;;;;;;24.01;47.81;95630.31;5049738;28;20118;-82
2021/08/05 11:33:55;;;;;;;5.53;1.90;;;;;;;24.02;49.07;95634.56;5031840;28;20034;-81